Latest Weather Observations for Jervois

IDD60801

Issued at 1:05 pm CST Saturday 29 November 2014 (issued every 30 minutes, with the page automatically refreshed every 10 minutes)

About weather observations | Map of weather stations | Latest weather observations for NT | Other Formats
Station Details ID: 015602 Name: JERVOIS Lat: -22.95 Lon: 136.14 Height: 328.0 m
Data from the previous 72 hours. | See also: Recent months at Jervois
Date/Time
CST
Temp
°C
App
Temp
°C
Dew
Point
Rel
Hum
%
Delta-T
°C
Wind Press
QNH
hPa
Press
MSL
hPa
Rain
since 9 am
mm
Dir
 
Spd
km/h
Gust
km/h
Spd
kts
Gust
kts
29/01:00pm 39.4 36.5 9.7 16 17.7 N 15 26 8 14 1006.9 - 0.0
29/12:30pm 38.0 36.3 9.9 18 16.7 N 9 20 5 11 1007.7 - 0.0
29/12:00pm 38.2 35.5 10.2 18 16.7 NNW 15 24 8 13 1008.2 1006.1 0.0
29/11:30am 37.7 36.4 12.5 22 15.5 N 11 22 6 12 1008.7 - 0.0
29/11:00am 36.8 34.8 12.8 23 14.8 N 15 28 8 15 1009.0 - 0.0
29/10:30am 36.2 33.2 12.7 24 14.4 N 20 33 11 18 1009.5 - 0.0
29/10:00am 36.4 34.8 13.8 26 14.1 N 15 26 8 14 1009.8 - 0.0
29/09:30am 35.8 34.5 14.7 28 13.3 N 15 28 8 15 1010.0 - 0.0
29/09:00am 34.2 32.8 15.6 32 11.8 NNW 17 28 9 15 1010.3 1008.2 0.0
29/08:30am 32.9 31.5 15.5 35 11.0 NNW 17 24 9 13 1010.4 - 0.0
29/08:00am 31.7 30.1 15.9 38 10.0 NNW 19 26 10 14 1010.4 - 0.0
29/07:30am 31.3 29.5 15.9 39 9.7 NNW 20 30 11 16 1010.5 - 0.0
29/07:00am 30.3 28.5 15.6 41 9.2 NNW 19 28 10 15 1010.1 - 0.0
29/06:30am 28.2 27.8 15.1 44 8.1 N 11 13 6 7 1010.0 - 0.0
29/06:00am 25.5 25.8 15.0 52 6.4 N 7 11 4 6 1009.8 1007.7 0.0
29/05:30am 26.5 26.9 15.3 50 6.9 NNW 7 11 4 6 1009.4 - 0.0
29/05:00am 27.2 27.2 15.2 47 7.4 NNW 9 11 5 6 1009.1 - 0.0
29/04:30am 25.3 25.1 14.6 51 6.5 N 9 11 5 6 1009.1 - 0.0
29/04:00am 25.9 25.6 14.3 48 7.0 N 9 11 5 6 1008.9 - 0.0
29/03:30am 26.4 26.0 14.2 47 7.4 N 9 13 5 7 1008.9 - 0.0
29/03:00am 26.3 25.5 12.8 43 8.0 N 9 11 5 6 1009.0 1006.9 0.0
29/02:30am 26.6 25.9 12.1 40 8.5 NNW 7 9 4 5 1008.8 - 0.0
29/02:00am 27.2 26.8 12.9 41 8.5 N 7 9 4 5 1008.8 - 0.0
29/01:30am 27.3 27.1 11.9 38 9.0 N 4 7 2 4 1008.7 - 0.0
29/01:00am 27.9 27.8 13.2 40 8.8 SSW 6 7 3 4 1008.6 - 0.0
29/12:30am 28.5 27.6 12.5 37 9.5 SSW 9 11 5 6 1008.8 - 0.0
29/12:00am 28.0 28.6 12.0 37 9.4 CALM 0 0 0 0 1009.1 1007.0 0.0
 
Date/Time
CST
Temp
°C
App
Temp
°C
Dew
Point
Rel
Hum
%
Delta-T
°C
Wind Press
QNH
hPa
Press
MSL
hPa
Rain
since 9 am
mm
Dir
 
Spd
km/h
Gust
km/h
Spd
kts
Gust
kts
28/11:30pm 28.3 29.1 12.7 38 9.3 CALM 0 0 0 0 1009.5 - 0.0
28/11:00pm 28.8 29.2 11.3 33 10.2 CALM 0 0 0 0 1009.8 - 0.0
28/10:30pm 29.3 30.5 13.8 38 9.4 CALM 0 0 0 0 1010.0 - 0.0
28/10:00pm 30.3 31.5 13.9 36 10.0 CALM 0 0 0 0 1009.9 - 0.0
28/09:30pm 31.3 32.8 14.7 36 10.3 CALM 0 6 0 3 1009.7 - 0.0
28/09:00pm 32.6 32.3 13.3 31 11.8 N 7 9 4 5 1009.5 1007.3 0.0
28/08:30pm 33.3 31.7 11.5 26 13.0 ENE 11 13 6 7 1009.2 - 0.0
28/08:00pm 33.9 31.9 11.5 25 13.4 ENE 13 15 7 8 1009.0 - 0.0
28/07:30pm 34.4 32.6 11.0 24 13.9 NE 11 13 6 7 1008.8 - 0.0
28/07:00pm 34.8 31.4 10.7 23 14.3 ENE 19 28 10 15 1008.5 - 0.0
28/06:30pm 35.4 31.8 10.4 22 14.8 E 20 32 11 17 1007.9 - 0.0
28/06:00pm 36.9 32.9 9.2 18 16.2 E 20 26 11 14 1007.6 1005.5 0.0
28/05:30pm 37.7 34.7 7.5 16 17.2 S 13 20 7 11 1007.4 - 0.0
28/05:00pm 37.7 35.2 8.4 17 17.0 ENE 11 17 6 9 1007.3 - 0.0
28/04:30pm 38.5 34.6 6.9 14 18.0 ESE 17 26 9 14 1007.3 - 0.0
28/04:00pm 38.9 35.8 7.4 14 18.1 E 13 20 7 11 1007.4 - 0.0
28/03:30pm 38.6 35.3 8.1 15 17.6 S 15 28 8 15 1007.6 - 0.0
28/03:00pm 38.8 35.0 7.5 15 18.0 ESE 17 24 9 13 1008.1 1006.0 0.0
28/02:30pm 39.0 37.7 9.1 16 17.6 WSW 6 11 3 6 1008.7 - 0.0
28/02:00pm 39.0 37.4 8.8 16 17.7 NE 7 11 4 6 1009.2 - 0.0
28/01:30pm 38.3 35.3 7.7 15 17.6 SE 13 24 7 13 1009.7 - 0.0
28/01:00pm 37.3 34.9 8.5 17 16.7 NE 11 17 6 9 1010.3 - 0.0
28/12:30pm 36.9 34.9 8.6 18 16.4 NW 9 19 5 10 1010.7 - 0.0
28/12:00pm 35.7 33.4 8.9 19 15.5 ENE 11 20 6 11 1011.3 1009.3 0.0
28/11:30am 35.6 33.8 9.3 20 15.3 SW 9 19 5 10 1011.9 - 0.0
28/11:00am 34.5 32.3 9.3 21 14.6 S 11 20 6 11 1012.4 - 0.0
28/10:30am 33.9 31.8 9.9 23 14.0 SSE 11 17 6 9 1012.7 - 0.0
28/10:00am 33.3 30.8 8.2 21 14.2 SE 11 22 6 12 1012.9 - 0.0
28/09:30am 32.4 30.0 8.6 23 13.5 SSE 11 17 6 9 1013.2 - 0.0
28/09:00am 31.8 27.9 3.6 17 14.7 SSE 13 20 7 11 1013.3 1011.2 0.4
28/08:30am 31.1 27.0 2.0 15 14.7 SSE 13 20 7 11 1013.4 - 0.4
28/08:00am 29.4 24.6 0.4 15 14.1 S 15 20 8 11 1013.3 - 0.4
28/07:30am 27.7 23.3 0.5 17 13.1 S 13 20 7 11 1013.2 - 0.2
28/07:00am 26.7 21.9 0.2 17 12.6 S 15 22 8 12 1012.9 - 0.2
28/06:30am 26.2 22.0 1.5 20 12.0 SSW 13 20 7 11 1012.9 - 0.2
28/06:00am 25.8 22.7 3.5 23 11.2 SSW 9 13 5 7 1012.8 1010.8 0.2
28/05:30am 25.4 22.8 5.9 28 10.2 SSW 9 11 5 6 1012.6 - 0.2
28/05:00am 25.4 24.0 9.6 36 8.8 SSW 7 11 4 6 1012.6 - 0.2
28/04:30am 25.7 26.1 12.6 44 7.7 SSW 2 7 1 4 1012.6 - 0.2
28/04:00am 26.1 25.9 13.1 44 7.7 S 6 9 3 5 1012.4 - 0.2
28/03:30am 26.4 27.4 15.3 50 6.8 SSW 4 6 2 3 1012.2 - 0.2
28/03:00am 26.8 26.5 13.4 43 8.0 SSW 7 9 4 5 1012.5 1010.4 0.2
28/02:30am 26.1 28.6 17.2 58 5.6 CALM 0 0 0 0 1012.7 - 0.2
28/02:00am 26.5 30.0 19.5 65 4.6 CALM 0 0 0 0 1012.8 - 0.2
28/01:30am 27.1 28.0 16.0 50 6.9 SSE 6 9 3 5 1013.0 - 0.2
28/01:00am 26.6 28.5 18.5 61 5.2 S 6 7 3 4 1013.2 - 0.2
28/12:30am 28.2 27.0 12.7 38 9.2 ESE 11 17 6 9 1013.6 - 0.0
28/12:00am 29.9 25.4 8.4 26 12.0 SSE 22 32 12 17 1013.7 1011.8 0.0
 
Date/Time
CST
Temp
°C
App
Temp
°C
Dew
Point
Rel
Hum
%
Delta-T
°C
Wind Press
QNH
hPa
Press
MSL
hPa
Rain
since 9 am
mm
Dir
 
Spd
km/h
Gust
km/h
Spd
kts
Gust
kts
27/11:30pm 29.5 27.3 10.9 31 10.8 SSE 13 20 7 11 1014.0 - 0.0
27/11:00pm 30.3 29.0 11.1 30 11.2 SSE 9 15 5 8 1013.9 - 0.0
27/10:30pm 31.3 28.1 8.3 24 12.9 S 15 24 8 13 1013.8 - 0.0
27/10:00pm 32.1 27.6 6.9 20 13.9 SSE 20 28 11 15 1013.5 - 0.0
27/09:30pm 32.2 27.9 6.8 20 14.0 SSE 19 30 10 16 1013.3 - 0.0
27/09:00pm 32.3 27.9 7.6 21 13.8 S 20 30 11 16 1012.9 1010.7 0.0
27/08:30pm 32.8 28.0 7.3 20 14.2 S 22 33 12 18 1012.6 - 0.0
27/08:00pm 33.1 27.5 7.3 20 14.4 S 26 39 14 21 1012.3 - 0.0
27/07:30pm 33.3 27.6 6.7 19 14.7 S 26 43 14 23 1012.1 - 0.0
27/07:00pm 33.6 27.5 6.4 18 15.0 S 28 41 15 22 1011.8 - 0.0
27/06:30pm 34.0 27.8 6.2 17 15.3 S 28 46 15 25 1011.2 - 0.0
27/06:21pm 34.1 27.9 6.1 17 15.4 S 28 46 15 25 1011.1 - 0.0
27/06:00pm 34.4 28.0 5.4 16 15.8 S 28 46 15 25 1010.7 1008.6 0.0
27/05:57pm 34.6 28.3 5.5 16 15.9 S 28 46 15 25 1010.6 - 0.0
27/05:30pm 35.1 29.8 8.4 19 15.3 S 26 41 14 22 1010.3 - 0.0
27/05:00pm 36.1 29.5 7.9 17 16.1 S 32 44 17 24 1010.0 - 0.0
27/04:40pm 36.4 30.6 7.9 17 16.3 S 28 48 15 26 1009.8 - 0.0
27/04:30pm 37.0 33.0 8.2 17 16.6 S 19 35 10 19 1009.8 - 0.0
27/04:00pm 36.8 32.3 8.4 17 16.4 SE 22 33 12 18 1010.1 - 0.0
27/03:30pm 37.5 33.5 9.1 18 16.6 S 20 43 11 23 1010.3 - 0.0
27/03:00pm 37.1 32.6 8.4 17 16.6 S 22 35 12 19 1010.5 1008.4 0.0
27/02:30pm 36.4 32.5 9.4 19 15.8 SSE 20 33 11 18 1010.9 - 0.0
27/02:00pm 37.1 33.9 10.1 19 16.0 SSE 17 28 9 15 1011.2 - 0.0
27/01:30pm 36.8 33.7 9.0 18 16.2 ESE 15 22 8 12 1011.7 - 0.0
27/01:00pm 36.9 35.5 9.4 19 16.1 E 7 28 4 15 1012.1 - 0.0
27/12:30pm 37.3 38.5 21.4 39 11.0 E 17 30 9 16 1012.5 - 0.0
27/12:00pm 36.1 31.7 7.3 17 16.3 SSE 20 28 11 15 1013.0 1010.9 0.0
27/11:30am 35.6 31.2 6.6 16 16.2 SE 19 28 10 15 1013.4 - 0.0
27/11:00am 35.6 31.3 6.9 17 16.1 SE 19 32 10 17 1013.9 - 0.0
27/10:30am 34.2 29.7 5.9 17 15.5 ESE 19 30 10 16 1014.1 - 0.0
27/10:00am 33.2 28.1 5.9 18 14.9 SE 22 32 12 17 1014.3 - 0.0
27/09:30am 32.6 28.2 4.9 17 14.8 SSE 17 32 9 17 1014.5 - 0.0
27/09:00am 31.1 25.9 2.4 16 14.6 SSE 19 28 10 15 1014.5 1012.5 0.0
27/08:30am 30.5 24.9 -0.3 13 14.9 SSE 19 26 10 14 1014.6 - 0.0
27/08:00am 29.5 23.0 -2.5 12 14.8 SE 22 30 12 16 1014.4 - 0.0
27/07:30am 28.6 22.4 -5.1 11 14.8 SSE 19 32 10 17 1014.2 - 0.0
27/07:00am 27.7 21.0 -7.6 9 14.7 SSE 20 30 11 16 1014.0 - 0.0
27/06:30am 27.1 21.1 -6.5 10 14.2 S 17 22 9 12 1013.8 - 0.0
27/06:00am 26.9 21.5 -4.8 12 13.8 SSE 15 22 8 12 1013.6 1011.4 0.0
27/05:30am 26.9 21.5 -4.3 12 13.7 SSE 15 22 8 12 1013.3 - 0.0
27/05:00am 27.1 21.8 -3.2 13 13.6 SSE 15 22 8 12 1013.1 - 0.0
27/04:30am 27.3 21.4 -2.2 14 13.5 SSE 19 26 10 14 1012.7 - 0.0
27/04:00am 27.4 22.1 -0.6 16 13.2 SSE 17 26 9 14 1012.5 - 0.0
27/03:30am 27.7 22.6 0.5 17 13.1 SE 17 24 9 13 1012.7 - 0.0
27/03:00am 28.0 23.0 1.6 18 13.0 SSE 17 26 9 14 1012.6 1010.5 0.0
27/02:30am 28.4 23.2 2.5 19 13.0 SSE 19 32 10 17 1012.7 - 0.0
27/02:00am 28.8 23.1 2.9 19 13.1 SSE 22 33 12 18 1012.5 - 0.0
27/01:30am 29.3 23.6 2.9 18 13.4 SSE 22 33 12 18 1012.7 - 0.0
27/01:00am 29.7 24.9 5.4 21 12.9 SE 20 32 11 17 1012.8 - 0.0
27/12:30am 30.4 25.3 5.8 21 13.2 SE 22 35 12 19 1013.0 - 0.0
27/12:00am 30.9 26.3 6.7 22 13.2 SE 20 28 11 15 1013.3 1011.2 0.0
 
Date/Time
CST
Temp
°C
App
Temp
°C
Dew
Point
Rel
Hum
%
Delta-T
°C
Wind Press
QNH
hPa
Press
MSL
hPa
Rain
since 9 am
mm
Dir
 
Spd
km/h
Gust
km/h
Spd
kts
Gust
kts
26/11:30pm 31.2 28.5 9.0 25 12.6 SE 13 20 7 11 1013.3 - 0.0
26/11:00pm 31.6 29.4 9.4 25 12.7 SE 11 17 6 9 1013.3 - 0.0
26/10:30pm 31.6 29.8 9.4 25 12.7 ESE 9 13 5 7 1013.2 - 0.0
26/10:00pm 31.5 30.2 9.8 26 12.5 SE 7 11 4 6 1013.1 - 0.0
26/09:30pm 32.3 29.6 9.0 23 13.3 ESE 13 19 7 10 1012.8 - 0.0
26/09:00pm 32.1 30.6 10.5 26 12.6 SSE 9 15 5 8 1012.7 1010.6 0.0
26/08:30pm 32.5 30.1 9.9 25 13.1 ESE 13 17 7 9 1012.3 - 0.0
26/08:00pm 33.1 30.1 9.3 23 13.7 ESE 15 22 8 12 1011.9 - 0.0
26/07:30pm 33.5 30.1 9.2 22 14.0 ESE 17 24 9 13 1011.4 - 0.0
26/07:00pm 33.8 29.9 9.4 22 14.1 ESE 20 32 11 17 1011.1 - 0.0
26/06:30pm 34.2 29.8 9.0 21 14.5 ESE 22 32 12 17 1010.9 - 0.0
26/06:00pm 34.7 30.9 9.1 21 14.8 ESE 19 30 10 16 1010.8 1008.7 0.0
26/05:30pm 35.7 31.0 9.2 20 15.4 SE 24 35 13 19 1010.7 - 0.0
26/05:00pm 35.6 31.9 9.6 20 15.2 ESE 19 30 10 16 1010.8 - 0.0
26/04:30pm 35.5 30.9 9.7 20 15.1 SE 24 35 13 19 1010.7 - 0.0
26/04:00pm 35.5 31.7 9.7 20 15.1 SE 20 30 11 16 1010.9 - 0.0
26/03:30pm 35.3 31.9 10.7 22 14.6 ESE 19 28 10 15 1011.1 - 0.0
26/03:00pm 35.7 33.7 11.6 23 14.5 S 13 28 7 15 1011.4 1009.5 0.0
26/02:30pm 35.7 30.8 9.8 20 15.2 E 26 32 14 17 1011.9 - 0.0
26/02:00pm 35.1 31.4 10.3 22 14.6 ESE 20 30 11 16 1012.4 - 0.0
26/01:30pm 34.5 32.0 10.9 23 14.0 SE 15 20 8 11 1012.7 - 0.0

Other Formats:

Comma delimited format used in spreadsheet applications
http://www.bom.gov.au/fwo/IDD60801/IDD60801.94327.axf

JavaScript Object Notation format (JSON) in row-major order
http://www.bom.gov.au/fwo/IDD60801/IDD60801.94327.json